Flight Track Log - Related Links

Times and Time Zones

All times are in EDT time to prevent confusion due to time zone crossing. See the SWA1718 flight status page for this flight to view local times or setup timezone preferences in your user account.

Time Position Orientation Groundspeed Altitude Reporting Facility
EDT Latitude Longitude Course Direction KTS MPH feet Rate Location/Type
05:37PM 32.7422 -117.2147 337° Northwest 144 166 1,300  Level Los Angeles Center
05:38PM 32.7744 -117.2711 304° West 192 221 3,700 2,323 Climbing Los Angeles Center
05:39PM 32.8214 -117.3494 306° West 263 303 6,100 3,097 Climbing Los Angeles Center
05:40PM 32.8686 -117.4278 306° West 284 327 10,100 3,366 Climbing Los Angeles Center
05:41PM 32.9344 -117.5047 316° Northwest 333 383 13,000 3,268 Climbing Los Angeles Center
05:42PM 33.0147 -117.5750 324° Northwest 361 415 16,800 3,484 Climbing Los Angeles Center
05:43PM 33.1468 -117.7901 337° Northwest  Level FlightAware Approximate
05:43PM 33.0769 -117.6753 307° West 372 428 20,200  Level Los Angeles Center
05:44PM 33.1411 -117.7758 307° West 379 436 22,900 1,392 Climbing Los Angeles Center
05:45PM 33.2236 -117.9000 308° West 394 453 23,100 1,073 Climbing Los Angeles Center
05:46PM 33.2981 -117.9611 326° Northwest 403 464 25,100 2,164 Climbing Los Angeles Center
05:47PM 33.4183 -118.0500 328° Northwest 421 484 27,500 2,226 Climbing Los Angeles Center
05:48PM 33.5264 -118.1289 329° Northwest 448 516 29,700 2,129 Climbing Los Angeles Center
05:49PM 33.6347 -118.2097 328° Northwest 459 528 31,900 2,323 Climbing Los Angeles Center
05:50PM 33.7622 -118.3047 328° Northwest 467 537 34,500 1,984 Climbing Los Angeles Center
05:51PM 33.8694 -118.3861 328° Northwest 459 528 36,000 1,415 Climbing Los Angeles Center
05:52PM 33.9878 -118.4453 337° Northwest 481 554 37,400 1,366 Climbing Los Angeles Center
05:54PM 34.1219 -118.4722 351° North 487 560 38,800 1,258 Climbing Los Angeles Center
05:55PM 34.2544 -118.4989 351° North 485 558 40,000 581 Climbing Los Angeles Center
05:56PM 34.4100 -118.5300 351° North 473 544 40,000  Level Los Angeles Center
05:57PM 34.5125 -118.5519 350° North 470 541 40,000  Level Los Angeles Center
05:58PM 34.6942 -118.5892 350° North 472 543 40,000  Level Los Angeles Center
05:59PM 34.8231 -118.6142 351° North 470 541 40,000  Level Los Angeles Center
06:00PM 34.9444 -118.6392 350° North 470 541 40,000  Level Los Angeles Center
06:01PM 35.0989 -118.6714 350° North 470 541 40,000  Level Los Angeles Center
06:02PM 35.2275 -118.6992 350° North 471 542 40,000  Level Los Angeles Center
06:03PM 35.3575 -118.7278 350° North 475 547 40,000  Level Los Angeles Center
06:04PM 35.5081 -118.7606 350° North 462 532 40,000  Level Los Angeles Center
06:05PM 35.6358 -118.7861 351° North 466 536 40,000  Level Los Angeles Center
06:06PM 35.7656 -118.8153 350° North 474 545 40,000  Level Los Angeles Center
06:07PM 35.9197 -118.8483 350° North 472 543 40,000  Level Los Angeles Center
06:08PM 36.0475 -118.8753 350° North 468 539 40,000  Level Los Angeles Center
06:09PM 36.1742 -118.9019 350° North 466 536 40,000  Level Los Angeles Center
06:10PM 36.2778 -118.9247 350° North 471 542 40,000  Level Los Angeles Center
06:11PM 36.4322 -118.9594 350° North 472 543 40,000  Level Los Angeles Center
06:12PM 36.5608 -118.9881 350° North 472 543 40,000 -192 Level Los Angeles Center
06:13PM 36.7161 -119.0206 350° North 473 544 39,600 -701 Descending Los Angeles Center
06:15PM 36.8678 -119.0533 350° North 470 541 38,400 -978 Descending Oakland Center
06:16PM 36.9967 -119.0811 350° North 469 540 37,400 -934 Descending Oakland Center
06:17PM 37.1253 -119.1094 350° North 471 542 36,500 -878 Descending Oakland Center
06:18PM 37.2531 -119.1378 350° North 468 539 35,600 -927 Descending Oakland Center
06:19PM 37.3822 -119.1658 350° North 471 542 34,600 -984 Descending Oakland Center
06:20PM 37.5100 -119.1928 351° North 468 539 33,600 -984 Descending Oakland Center
06:21PM 37.6417 -119.2222 350° North 456 525 32,600 -976 Descending Oakland Center
06:22PM 37.7650 -119.2489 350° North 451 519 31,600 -976 Descending Oakland Center
06:23PM 37.8850 -119.2767 350° North 441 507 30,600 -1,082 Descending Oakland Center
06:24PM 38.0272 -119.3089 350° North 434 499 29,400 -1,082 Descending Oakland Center
06:25PM 38.1431 -119.3347 350° North 428 493 28,400 -976 Descending Oakland Center
06:26PM 38.2486 -119.3578 350° North 428 493 27,400 -927 Descending Oakland Center
06:27PM 38.3639 -119.3856 349° North 423 487 26,500 -984 Descending Oakland Center
06:28PM 38.4753 -119.4103 350° North 409 471 25,400 -1,805 Descending Oakland Center
06:29PM 38.6083 -119.4408 350° North 405 466 22,800 -2,146 Descending Oakland Center
06:30PM 38.7211 -119.4672 350° North 409 471 21,000 -1,707 Descending Oakland Center
06:31PM 38.8311 -119.4936 349° North 403 464 19,300 -1,610 Descending Oakland Center
06:32PM 38.9389 -119.5183 350° North 394 453 17,700 -1,623 Descending Oakland Center
06:33PM 39.0458 -119.5439 349° North 393 452 16,000 -829 Descending Oakland Center
06:34PM 39.1489 -119.5669 350° North 378 435 16,000 -49 Level Oakland Center
06:35PM 39.2539 -119.5908 350° North 380 437 15,900 -1,082 Descending Oakland Center
06:36PM 39.3600 -119.6156 350° North 386 444 13,800 -2,234 Descending Oakland Center
06:37PM 39.4333 -119.6333 349° North 369 425 12,400 -2,000 Descending Northern Cal TRACON
06:38PM 39.5167 -119.6500 351° North 361 415 10,700 -1,200 Descending Northern Cal TRACON
06:39PM 39.6167 -119.6667 353° North 313 360 10,000 -527 Descending Northern Cal TRACON
06:39PM 39.6450 -119.6669 360° North 317 365 9,900 -645 Descending Oakland Center
06:40PM 39.7228 -119.6725 357° North 288 331 9,000 -537 Descending Oakland Center
06:41PM 39.7614 -119.7281 312° West 259 298 8,800 -340 Descending Oakland Center
06:43PM 39.6889 -119.7697 204° Southwest 171 197 8,100 -566 Descending Oakland Center
06:44PM 39.6475 -119.7681 178° South 171 197 7,300 -1,049 Descending Oakland Center
06:45PM 39.6167 -119.7667 178° South 162 186 6,300 -1,069 Descending Northern Cal TRACON
06:46PM 39.5667 -119.7667 180° South 151 174 5,500 -807 Descending Northern Cal TRACON
06:47PM 39.5167 -119.7667 180° South 153 176 4,700 -800 Descending Northern Cal TRACON

Login

Don't have an account? Register now (free) for customized features, flight alerts, and more!